UAE409 FNBJ-OMDB
Flight info
| Callsign | UAE409 |
|---|---|
| Flight time | N/A |
| Altitude | 33000 |
| Route | UTIVO UM216 BULNA/N0489F350 UM216 HARGA UB404 DEMGO B404 PURKA/N0482F370 B404 RIGAM B400 DAXAM Y414 DEDSO R401 VELIK/N0472F360 R401 MUSAP/N0466F350 R401 PEDOG Q308 KIPOK Q568 IMPED |
| Aircraft | B77W/H-SDE1E2E3FGHIJ2J3J4J5M1RWXY/LB1D1 |
Departure
| Time | 2026-04-16 21:37 |
|---|---|
| Airport | Dr. Antonio Agostinho Neto International Airport (FNBJ) |
Arrival
| Time | N/A |
|---|---|
| Airport | Dubai International Airport (OMDB) |
| Time | Latitude | Longitude | Altitude | Speed | Heading |
|---|---|---|---|---|---|
| 2026-04-16 21:13 | -9.05522 | 13.49852 | 545 ft | 0 kts | 323° |
| 2026-04-16 21:29 | -9.05516 | 13.49843 | 547 ft | 3 kts | 300° |
| 2026-04-16 21:29 | -9.05531 | 13.49806 | 545 ft | 5 kts | 212° |
| 2026-04-16 21:29 | -9.05541 | 13.49803 | 545 ft | 0 kts | 192° |
| 2026-04-16 21:30 | -9.05549 | 13.49800 | 543 ft | 3 kts | 204° |
| 2026-04-16 21:30 | -9.05570 | 13.49773 | 545 ft | 7 kts | 237° |
| 2026-04-16 21:30 | -9.05618 | 13.49724 | 545 ft | 11 kts | 207° |
| 2026-04-16 21:31 | -9.05656 | 13.49728 | 545 ft | 6 kts | 163° |
| 2026-04-16 21:31 | -9.05710 | 13.49760 | 545 ft | 12 kts | 143° |
| 2026-04-16 21:31 | -9.05788 | 13.49818 | 545 ft | 16 kts | 143° |
| 2026-04-16 21:31 | -9.05884 | 13.49892 | 545 ft | 19 kts | 142° |
| 2026-04-16 21:32 | -9.05985 | 13.49970 | 545 ft | 13 kts | 143° |
| 2026-04-16 21:32 | -9.06071 | 13.50003 | 546 ft | 15 kts | 202° |
| 2026-04-16 21:32 | -9.06148 | 13.49919 | 547 ft | 18 kts | 233° |
| 2026-04-16 21:32 | -9.06224 | 13.49814 | 546 ft | 17 kts | 233° |
| 2026-04-16 21:33 | -9.06294 | 13.49720 | 547 ft | 16 kts | 233° |
| 2026-04-16 21:33 | -9.06371 | 13.49615 | 546 ft | 16 kts | 233° |
| 2026-04-16 21:33 | -9.06449 | 13.49510 | 545 ft | 21 kts | 233° |
| 2026-04-16 21:33 | -9.06534 | 13.49393 | 545 ft | 21 kts | 234° |
| 2026-04-16 21:34 | -9.06620 | 13.49276 | 544 ft | 21 kts | 232° |
| 2026-04-16 21:34 | -9.06698 | 13.49170 | 543 ft | 18 kts | 233° |
| 2026-04-16 21:34 | -9.06773 | 13.49067 | 544 ft | 20 kts | 233° |
| 2026-04-16 21:34 | -9.06856 | 13.48954 | 544 ft | 19 kts | 233° |
| 2026-04-16 21:35 | -9.06957 | 13.48944 | 543 ft | 16 kts | 146° |
| 2026-04-16 21:35 | -9.06992 | 13.49010 | 544 ft | 11 kts | 56° |
| 2026-04-16 21:35 | -9.06957 | 13.49051 | 544 ft | 0 kts | 57° |
| 2026-04-16 21:36 | -9.06874 | 13.49175 | 545 ft | 53 kts | 54° |
| 2026-04-16 21:36 | -9.06530 | 13.49669 | 549 ft | 117 kts | 55° |
| 2026-04-16 21:36 | -9.05956 | 13.50493 | 562 ft | 169 kts | 55° |
| 2026-04-16 21:36 | -9.05208 | 13.51567 | 654 ft | 197 kts | 54° |
| 2026-04-16 21:37 | -9.04414 | 13.52670 | 1236 ft | 193 kts | 54° |
| 2026-04-16 21:37 | -9.03622 | 13.53779 | 1701 ft | 199 kts | 57° |
| 2026-04-16 21:37 | -9.02816 | 13.54954 | 2201 ft | 202 kts | 57° |
| 2026-04-16 21:37 | -9.02274 | 13.55749 | 2348 ft | 215 kts | 57° |
| 2026-04-16 21:38 | -9.01065 | 13.57527 | 2614 ft | 243 kts | 57° |
| 2026-04-16 21:38 | -9.00422 | 13.58472 | 2888 ft | 249 kts | 57° |
| 2026-04-16 21:38 | -8.99421 | 13.59940 | 3400 ft | 257 kts | 57° |
| 2026-04-16 21:38 | -8.98404 | 13.61431 | 3993 ft | 260 kts | 56° |
| 2026-04-16 21:39 | -8.97368 | 13.62951 | 4631 ft | 262 kts | 56° |
| 2026-04-16 21:39 | -8.96337 | 13.64464 | 5206 ft | 264 kts | 56° |
| 2026-04-16 21:39 | -8.95283 | 13.66007 | 5833 ft | 266 kts | 56° |
| 2026-04-16 21:39 | -8.94223 | 13.67558 | 6326 ft | 273 kts | 56° |
| 2026-04-16 21:40 | -8.93122 | 13.69167 | 6795 ft | 280 kts | 56° |
| 2026-04-16 21:40 | -8.92016 | 13.70784 | 7357 ft | 282 kts | 56° |
| 2026-04-16 21:40 | -8.90907 | 13.72407 | 7941 ft | 284 kts | 56° |
| 2026-04-16 21:40 | -8.89779 | 13.74056 | 8516 ft | 286 kts | 56° |
| 2026-04-16 21:41 | -8.88639 | 13.75724 | 9104 ft | 289 kts | 56° |
| 2026-04-16 21:41 | -8.87492 | 13.77401 | 9672 ft | 292 kts | 56° |
| 2026-04-16 21:41 | -8.86333 | 13.79096 | 10199 ft | 295 kts | 56° |
| 2026-04-16 21:41 | -8.85128 | 13.80857 | 10439 ft | 313 kts | 56° |
| 2026-04-16 21:42 | -8.83849 | 13.82727 | 10587 ft | 333 kts | 56° |
| 2026-04-16 21:42 | -8.82493 | 13.84707 | 10735 ft | 353 kts | 56° |
| 2026-04-16 21:42 | -8.81060 | 13.86799 | 10935 ft | 371 kts | 56° |
| 2026-04-16 21:42 | -8.79572 | 13.88971 | 11371 ft | 380 kts | 56° |
| 2026-04-16 21:43 | -8.78063 | 13.91174 | 11932 ft | 387 kts | 56° |
| 2026-04-16 21:43 | -8.76504 | 13.93451 | 12655 ft | 390 kts | 56° |
| 2026-04-16 21:43 | -8.74954 | 13.95715 | 13375 ft | 393 kts | 56° |
| 2026-04-16 21:43 | -8.73388 | 13.98002 | 14018 ft | 397 kts | 55° |
| 2026-04-16 21:44 | -8.71836 | 14.00269 | 14580 ft | 401 kts | 55° |
| 2026-04-16 21:44 | -8.70235 | 14.02608 | 15163 ft | 405 kts | 55° |
| 2026-04-16 21:44 | -8.68625 | 14.04957 | 15731 ft | 409 kts | 55° |
| 2026-04-16 21:44 | -8.66997 | 14.07333 | 16313 ft | 413 kts | 55° |
| 2026-04-16 21:45 | -8.65357 | 14.09725 | 16878 ft | 417 kts | 55° |
| 2026-04-16 21:45 | -8.63708 | 14.12131 | 17435 ft | 421 kts | 55° |
| 2026-04-16 21:45 | -8.62023 | 14.14586 | 18003 ft | 425 kts | 55° |
| 2026-04-16 21:45 | -8.60332 | 14.17051 | 18494 ft | 429 kts | 55° |
| 2026-04-16 21:46 | -8.58621 | 14.19545 | 18992 ft | 432 kts | 55° |
| 2026-04-16 21:46 | -8.56906 | 14.22044 | 19512 ft | 434 kts | 55° |
| 2026-04-16 21:46 | -8.55175 | 14.24565 | 20032 ft | 437 kts | 55° |
| 2026-04-16 21:46 | -8.53439 | 14.27093 | 20515 ft | 440 kts | 55° |
| 2026-04-16 21:47 | -8.51694 | 14.29635 | 21004 ft | 443 kts | 55° |
| 2026-04-16 21:47 | -8.49950 | 14.32175 | 21465 ft | 446 kts | 55° |
| 2026-04-16 21:47 | -8.48179 | 14.34753 | 21938 ft | 448 kts | 56° |
| 2026-04-16 21:47 | -8.46395 | 14.37351 | 22410 ft | 451 kts | 56° |
| 2026-04-16 21:48 | -8.44603 | 14.39959 | 22884 ft | 453 kts | 56° |
| 2026-04-16 21:48 | -8.42808 | 14.42571 | 23389 ft | 455 kts | 56° |
| 2026-04-16 21:48 | -8.40999 | 14.45204 | 23806 ft | 457 kts | 56° |
| 2026-04-16 21:48 | -8.39179 | 14.47851 | 24169 ft | 459 kts | 55° |
| 2026-04-16 21:49 | -8.37351 | 14.50511 | 24536 ft | 462 kts | 55° |
| 2026-04-16 21:49 | -8.35516 | 14.53180 | 24915 ft | 464 kts | 55° |
| 2026-04-16 21:49 | -8.33666 | 14.55870 | 25291 ft | 466 kts | 55° |
| 2026-04-16 21:49 | -8.31812 | 14.58566 | 25646 ft | 468 kts | 55° |
| 2026-04-16 21:50 | -8.29947 | 14.61275 | 25978 ft | 471 kts | 55° |
| 2026-04-16 21:50 | -8.28071 | 14.64001 | 26296 ft | 474 kts | 55° |
| 2026-04-16 21:50 | -8.26183 | 14.66743 | 26628 ft | 476 kts | 55° |
| 2026-04-16 21:50 | -8.24288 | 14.69495 | 26934 ft | 479 kts | 55° |
| 2026-04-16 21:51 | -8.22384 | 14.72260 | 27262 ft | 481 kts | 55° |
| 2026-04-16 21:51 | -8.20478 | 14.75027 | 27608 ft | 483 kts | 55° |
| 2026-04-16 21:51 | -8.18553 | 14.77822 | 27932 ft | 485 kts | 55° |
| 2026-04-16 21:51 | -8.16616 | 14.80632 | 28220 ft | 488 kts | 55° |
| 2026-04-16 21:52 | -8.14674 | 14.83451 | 28500 ft | 490 kts | 55° |
| 2026-04-16 21:52 | -8.12748 | 14.86245 | 28774 ft | 493 kts | 55° |
| 2026-04-16 21:52 | -8.10789 | 14.89087 | 29043 ft | 495 kts | 55° |
| 2026-04-16 21:52 | -8.08819 | 14.91945 | 29310 ft | 497 kts | 55° |
| 2026-04-16 21:53 | -8.06836 | 14.94820 | 29589 ft | 499 kts | 55° |
| 2026-04-16 21:53 | -8.04857 | 14.97690 | 29848 ft | 501 kts | 55° |
| 2026-04-16 21:53 | -8.02859 | 15.00586 | 30110 ft | 502 kts | 55° |
| 2026-04-16 21:53 | -8.00867 | 15.03473 | 30437 ft | 500 kts | 55° |
| 2026-04-16 21:54 | -7.98937 | 15.06371 | 30754 ft | 494 kts | 57° |
| 2026-04-16 21:54 | -7.95573 | 15.12358 | 30770 ft | 489 kts | 64° |
| 2026-04-16 21:55 | -7.92873 | 15.18630 | 30783 ft | 487 kts | 68° |
| 2026-04-16 21:55 | -7.90196 | 15.24987 | 30963 ft | 498 kts | 66° |
| 2026-04-16 21:55 | -7.88754 | 15.28171 | 31238 ft | 498 kts | 65° |
| 2026-04-16 21:56 | -7.87284 | 15.31288 | 31571 ft | 496 kts | 64° |
| 2026-04-16 21:56 | -7.85756 | 15.34454 | 31916 ft | 494 kts | 64° |
| 2026-04-16 21:56 | -7.84264 | 15.37518 | 32229 ft | 494 kts | 64° |
| 2026-04-16 21:56 | -7.82753 | 15.40631 | 32479 ft | 494 kts | 64° |
| 2026-04-16 21:57 | -7.81252 | 15.43745 | 32712 ft | 495 kts | 64° |
| 2026-04-16 21:57 | -7.79758 | 15.46865 | 32885 ft | 498 kts | 64° |
| 2026-04-16 21:57 | -7.78239 | 15.50056 | 32930 ft | 500 kts | 64° |
| 2026-04-16 21:58 | -7.75255 | 15.56337 | 32966 ft | 496 kts | 64° |
| 2026-04-16 21:58 | -7.72268 | 15.62612 | 32975 ft | 494 kts | 64° |
| 2026-04-16 21:59 | -7.69290 | 15.68855 | 32971 ft | 493 kts | 64° |
| 2026-04-16 21:59 | -7.66324 | 15.75070 | 32970 ft | 493 kts | 64° |
| 2026-04-16 22:00 | -7.63342 | 15.81308 | 32969 ft | 493 kts | 64° |
| 2026-04-16 22:00 | -7.60354 | 15.87535 | 32962 ft | 493 kts | 64° |
| 2026-04-16 22:01 | -7.57361 | 15.93769 | 32956 ft | 493 kts | 64° |
| 2026-04-16 22:01 | -7.54404 | 15.99931 | 32952 ft | 492 kts | 64° |
| 2026-04-16 22:02 | -7.51427 | 16.06134 | 32950 ft | 490 kts | 64° |
| 2026-04-16 22:02 | -7.48471 | 16.12292 | 32944 ft | 488 kts | 64° |
| 2026-04-16 22:03 | -7.45512 | 16.18450 | 32943 ft | 487 kts | 64° |
| 2026-04-16 22:03 | -7.42563 | 16.24585 | 32932 ft | 486 kts | 64° |
| 2026-04-16 22:04 | -7.39622 | 16.30702 | 32927 ft | 484 kts | 64° |
| 2026-04-16 22:04 | -7.37187 | 16.35764 | 32931 ft | 484 kts | 64° |
| 2026-04-16 22:05 | -7.34248 | 16.41873 | 32931 ft | 483 kts | 64° |
| 2026-04-16 22:05 | -7.30823 | 16.48988 | 32919 ft | 483 kts | 64° |
| 2026-04-16 22:06 | -7.27894 | 16.55070 | 32921 ft | 482 kts | 64° |
| 2026-04-16 22:06 | -7.23521 | 16.64144 | 32921 ft | 482 kts | 64° |
| 2026-04-16 22:07 | -7.20590 | 16.70224 | 32923 ft | 483 kts | 64° |
| 2026-04-16 22:07 | -7.17653 | 16.76315 | 32923 ft | 484 kts | 64° |
| 2026-04-16 22:08 | -7.14709 | 16.82419 | 32926 ft | 486 kts | 64° |
| 2026-04-16 22:08 | -7.11753 | 16.88544 | 32927 ft | 487 kts | 64° |
| 2026-04-16 22:09 | -7.08789 | 16.94686 | 32925 ft | 488 kts | 64° |
| 2026-04-16 22:09 | -7.05820 | 17.00839 | 32928 ft | 489 kts | 64° |
| 2026-04-16 22:10 | -7.02866 | 17.07019 | 32929 ft | 489 kts | 64° |
| 2026-04-16 22:10 | -6.99924 | 17.13197 | 32935 ft | 490 kts | 64° |
| 2026-04-16 22:11 | -6.96980 | 17.19373 | 32935 ft | 490 kts | 64° |
| 2026-04-16 22:11 | -6.94047 | 17.25513 | 32937 ft | 490 kts | 64° |
| 2026-04-16 22:12 | -6.91074 | 17.31730 | 32938 ft | 490 kts | 64° |
| 2026-04-16 22:12 | -6.88140 | 17.37867 | 32940 ft | 489 kts | 64° |
| 2026-04-16 22:13 | -6.85195 | 17.44025 | 32943 ft | 489 kts | 64° |
| 2026-04-16 22:13 | -6.82223 | 17.50238 | 32945 ft | 488 kts | 64° |
| 2026-04-16 22:14 | -6.79291 | 17.56363 | 32947 ft | 488 kts | 64° |
| 2026-04-16 22:14 | -6.76364 | 17.62525 | 32947 ft | 487 kts | 64° |
| 2026-04-16 22:15 | -6.73474 | 17.68662 | 32951 ft | 487 kts | 64° |
| 2026-04-16 22:15 | -6.70523 | 17.74800 | 32947 ft | 486 kts | 64° |
| 2026-04-16 22:16 | -6.67554 | 17.80916 | 32953 ft | 486 kts | 64° |
| 2026-04-16 22:16 | -6.64598 | 17.87020 | 32953 ft | 487 kts | 64° |
| 2026-04-16 22:17 | -6.61633 | 17.93163 | 32955 ft | 487 kts | 64° |
| 2026-04-16 22:17 | -6.58668 | 17.99310 | 32951 ft | 488 kts | 64° |
| 2026-04-16 22:18 | -6.55699 | 18.05460 | 32955 ft | 489 kts | 64° |
| 2026-04-16 22:18 | -6.52728 | 18.11608 | 32953 ft | 489 kts | 64° |
| 2026-04-16 22:19 | -6.49747 | 18.17776 | 32951 ft | 490 kts | 64° |
| 2026-04-16 22:19 | -6.46771 | 18.23932 | 32950 ft | 490 kts | 64° |
| 2026-04-16 22:20 | -6.43794 | 18.30090 | 32949 ft | 490 kts | 64° |
| 2026-04-16 22:20 | -6.40804 | 18.36194 | 32947 ft | 490 kts | 63° |
| 2026-04-16 22:21 | -6.37759 | 18.42322 | 32943 ft | 490 kts | 63° |
| 2026-04-16 22:21 | -6.35230 | 18.47430 | 32944 ft | 490 kts | 64° |
| 2026-04-16 22:22 | -6.31748 | 18.54609 | 32940 ft | 489 kts | 64° |
| 2026-04-16 22:22 | -6.28796 | 18.60786 | 32938 ft | 489 kts | 64° |
| 2026-04-16 22:23 | -6.25851 | 18.66941 | 32937 ft | 489 kts | 64° |
| 2026-04-16 22:23 | -6.22892 | 18.73096 | 32931 ft | 488 kts | 64° |
| 2026-04-16 22:24 | -6.19934 | 18.79237 | 32932 ft | 488 kts | 64° |
| 2026-04-16 22:24 | -6.16985 | 18.85356 | 32931 ft | 487 kts | 64° |
| 2026-04-16 22:25 | -6.14528 | 18.90457 | 32927 ft | 487 kts | 64° |
| 2026-04-16 22:25 | -6.11581 | 18.96573 | 32926 ft | 487 kts | 64° |
| 2026-04-16 22:26 | -6.08625 | 19.02705 | 32928 ft | 487 kts | 64° |
| 2026-04-16 22:26 | -6.05668 | 19.08839 | 32923 ft | 487 kts | 64° |
| 2026-04-16 22:27 | -6.02717 | 19.14958 | 32920 ft | 487 kts | 64° |
| 2026-04-16 22:27 | -5.99767 | 19.21070 | 32922 ft | 488 kts | 64° |
| 2026-04-16 22:28 | -5.96807 | 19.27205 | 32918 ft | 488 kts | 64° |
| 2026-04-16 22:28 | -5.93840 | 19.33349 | 32919 ft | 488 kts | 64° |
| 2026-04-16 22:29 | -5.90875 | 19.39490 | 32916 ft | 489 kts | 64° |
| 2026-04-16 22:29 | -5.87907 | 19.45633 | 32915 ft | 489 kts | 64° |
| 2026-04-16 22:30 | -5.84930 | 19.51793 | 32912 ft | 490 kts | 64° |
| 2026-04-16 22:30 | -5.81956 | 19.57942 | 32914 ft | 490 kts | 64° |
| 2026-04-16 22:31 | -5.78976 | 19.64098 | 32910 ft | 490 kts | 64° |
| 2026-04-16 22:31 | -5.75998 | 19.70251 | 32911 ft | 490 kts | 64° |
| 2026-04-16 22:32 | -5.73010 | 19.76424 | 32910 ft | 490 kts | 64° |
| 2026-04-16 22:32 | -5.70053 | 19.82531 | 32906 ft | 490 kts | 64° |
| 2026-04-16 22:33 | -5.67071 | 19.88690 | 32909 ft | 490 kts | 64° |
| 2026-04-16 22:33 | -5.64089 | 19.94843 | 32904 ft | 490 kts | 64° |
| 2026-04-16 22:34 | -5.61113 | 20.00985 | 32904 ft | 489 kts | 64° |
| 2026-04-16 22:34 | -5.58130 | 20.07138 | 32906 ft | 489 kts | 64° |
| 2026-04-16 22:35 | -5.55154 | 20.13274 | 32904 ft | 489 kts | 64° |
| 2026-04-16 22:35 | -5.52172 | 20.19422 | 32902 ft | 489 kts | 64° |
| 2026-04-16 22:36 | -5.49195 | 20.25559 | 32898 ft | 489 kts | 64° |
| 2026-04-16 22:36 | -5.46218 | 20.31691 | 32896 ft | 489 kts | 64° |
| 2026-04-16 22:37 | -5.43258 | 20.37790 | 32896 ft | 489 kts | 64° |
| 2026-04-16 22:37 | -5.40259 | 20.43959 | 32897 ft | 489 kts | 64° |
| 2026-04-16 22:38 | -5.37266 | 20.50086 | 32895 ft | 489 kts | 64° |
| 2026-04-16 22:38 | -5.34269 | 20.56217 | 32892 ft | 489 kts | 64° |
| 2026-04-16 22:39 | -5.31275 | 20.62343 | 32896 ft | 489 kts | 64° |
| 2026-04-16 22:39 | -5.28302 | 20.68431 | 32894 ft | 489 kts | 64° |
| 2026-04-16 22:40 | -5.25308 | 20.74560 | 32893 ft | 489 kts | 64° |
| 2026-04-16 22:40 | -5.22310 | 20.80695 | 32893 ft | 489 kts | 64° |
| 2026-04-16 22:41 | -5.19313 | 20.86824 | 32891 ft | 489 kts | 64° |
| 2026-04-16 22:41 | -5.16325 | 20.92936 | 32889 ft | 489 kts | 64° |
| 2026-04-16 22:42 | -5.13328 | 20.99062 | 32885 ft | 489 kts | 64° |
| 2026-04-16 22:42 | -5.10338 | 21.05173 | 32886 ft | 489 kts | 64° |
| 2026-04-16 22:43 | -5.07345 | 21.11286 | 33265 ft | 491 kts | 64° |
| 2026-04-16 22:43 | -5.05844 | 21.14353 | 33636 ft | 488 kts | 64° |
| 2026-04-16 22:43 | -5.04353 | 21.17398 | 34005 ft | 485 kts | 64° |
| 2026-04-16 22:44 | -5.02864 | 21.20441 | 34330 ft | 483 kts | 64° |
| 2026-04-16 22:44 | -5.01389 | 21.23454 | 34619 ft | 482 kts | 64° |
| 2026-04-16 22:44 | -4.99908 | 21.26478 | 34801 ft | 483 kts | 64° |
| 2026-04-16 22:44 | -4.98426 | 21.29503 | 34822 ft | 484 kts | 64° |
| 2026-04-16 22:45 | -4.95460 | 21.35556 | 34870 ft | 482 kts | 64° |
| 2026-04-16 22:45 | -4.92506 | 21.41582 | 34882 ft | 480 kts | 64° |
| 2026-04-16 22:46 | -4.89570 | 21.47570 | 34883 ft | 478 kts | 64° |
| 2026-04-16 22:46 | -4.86639 | 21.53546 | 34883 ft | 478 kts | 64° |
| 2026-04-16 22:47 | -4.83705 | 21.59529 | 34884 ft | 478 kts | 64° |
| 2026-04-16 22:47 | -4.80762 | 21.65529 | 34885 ft | 479 kts | 64° |
| 2026-04-16 22:48 | -4.77818 | 21.71527 | 34882 ft | 480 kts | 64° |
| 2026-04-16 22:48 | -4.74883 | 21.77510 | 34884 ft | 480 kts | 64° |
| 2026-04-16 22:49 | -4.71908 | 21.83576 | 34889 ft | 484 kts | 64° |
| 2026-04-16 22:49 | -4.68926 | 21.89659 | 34893 ft | 492 kts | 63° |
| 2026-04-16 22:50 | -4.65900 | 21.95821 | 34883 ft | 494 kts | 64° |
| 2026-04-16 22:50 | -4.62870 | 22.01988 | 34876 ft | 493 kts | 64° |
| 2026-04-16 22:51 | -4.59841 | 22.08155 | 34875 ft | 492 kts | 64° |
| 2026-04-16 22:51 | -4.56825 | 22.14297 | 34876 ft | 490 kts | 64° |
| 2026-04-16 22:52 | -4.53828 | 22.20397 | 34874 ft | 489 kts | 64° |
| 2026-04-16 22:52 | -4.50829 | 22.26501 | 34878 ft | 488 kts | 64° |
| 2026-04-16 22:53 | -4.47837 | 22.32586 | 34873 ft | 487 kts | 64° |
| 2026-04-16 22:53 | -4.44838 | 22.38687 | 34879 ft | 486 kts | 64° |
| 2026-04-16 22:54 | -4.41848 | 22.44765 | 34877 ft | 487 kts | 64° |
| 2026-04-16 22:54 | -4.38848 | 22.50863 | 34878 ft | 487 kts | 64° |
| 2026-04-16 22:55 | -4.35851 | 22.56955 | 34879 ft | 488 kts | 64° |
| 2026-04-16 22:55 | -4.32848 | 22.63057 | 34878 ft | 488 kts | 64° |
| 2026-04-16 22:56 | -4.29841 | 22.69167 | 34876 ft | 489 kts | 64° |
| 2026-04-16 22:56 | -4.26856 | 22.75228 | 34876 ft | 489 kts | 64° |
| 2026-04-16 22:57 | -4.23844 | 22.81344 | 34881 ft | 489 kts | 64° |
| 2026-04-16 22:57 | -4.20835 | 22.87454 | 34876 ft | 489 kts | 64° |
| 2026-04-16 22:58 | -4.17824 | 22.93564 | 34879 ft | 488 kts | 64° |
| 2026-04-16 22:58 | -4.14824 | 22.99652 | 34876 ft | 488 kts | 64° |
| 2026-04-16 22:59 | -4.11822 | 23.05743 | 34876 ft | 487 kts | 64° |
| 2026-04-16 22:59 | -4.08818 | 23.11836 | 34877 ft | 487 kts | 64° |
| 2026-04-16 23:00 | -4.05820 | 23.17915 | 34876 ft | 487 kts | 64° |
| 2026-04-16 23:00 | -4.02969 | 23.23965 | 34854 ft | 477 kts | 67° |
| 2026-04-16 23:01 | -4.00499 | 23.30088 | 34856 ft | 471 kts | 69° |
| 2026-04-16 23:01 | -3.98159 | 23.36197 | 34888 ft | 471 kts | 69° |
| 2026-04-16 23:02 | -3.95751 | 23.42358 | 34887 ft | 481 kts | 68° |
| 2026-04-16 23:02 | -3.93243 | 23.48630 | 34888 ft | 489 kts | 68° |
| 2026-04-16 23:03 | -3.90684 | 23.54984 | 34885 ft | 492 kts | 68° |
| 2026-04-16 23:03 | -3.88134 | 23.61330 | 34884 ft | 490 kts | 68° |
| 2026-04-16 23:04 | -3.85596 | 23.67662 | 34874 ft | 489 kts | 68° |
| 2026-04-16 23:04 | -3.83075 | 23.73951 | 34883 ft | 490 kts | 68° |
| 2026-04-16 23:05 | -3.80520 | 23.80321 | 34882 ft | 490 kts | 68° |
| 2026-04-16 23:05 | -3.77995 | 23.86613 | 34878 ft | 490 kts | 68° |
| 2026-04-16 23:06 | -3.75451 | 23.92949 | 34876 ft | 490 kts | 68° |
| 2026-04-16 23:06 | -3.72914 | 23.99268 | 34882 ft | 489 kts | 68° |
| 2026-04-16 23:07 | -3.70380 | 24.05578 | 34881 ft | 489 kts | 68° |
| 2026-04-16 23:07 | -3.67841 | 24.11901 | 34879 ft | 489 kts | 68° |
| 2026-04-16 23:08 | -3.65302 | 24.18221 | 34885 ft | 489 kts | 68° |
| 2026-04-16 23:08 | -3.62772 | 24.24518 | 34880 ft | 488 kts | 68° |
| 2026-04-16 23:09 | -3.60158 | 24.30795 | 34882 ft | 488 kts | 67° |
| 2026-04-16 23:09 | -3.57451 | 24.37039 | 34886 ft | 488 kts | 66° |
| 2026-04-16 23:10 | -3.55194 | 24.42231 | 34867 ft | 488 kts | 66° |
| 2026-04-16 23:10 | -3.52504 | 24.48466 | 34877 ft | 488 kts | 67° |
| 2026-04-16 23:11 | -3.49825 | 24.54716 | 34880 ft | 488 kts | 67° |
| 2026-04-16 23:11 | -3.47155 | 24.60952 | 34880 ft | 487 kts | 67° |
| 2026-04-16 23:12 | -3.44484 | 24.67186 | 34859 ft | 487 kts | 67° |
| 2026-04-16 23:12 | -3.41832 | 24.73368 | 34861 ft | 486 kts | 67° |
| 2026-04-16 23:13 | -3.39164 | 24.79584 | 34875 ft | 486 kts | 66° |
| 2026-04-16 23:13 | -3.36498 | 24.85795 | 34874 ft | 486 kts | 66° |
| 2026-04-16 23:14 | -3.33825 | 24.92023 | 34858 ft | 486 kts | 66° |
| 2026-04-16 23:14 | -3.31160 | 24.98230 | 34857 ft | 486 kts | 66° |
| 2026-04-16 23:15 | -3.27152 | 25.07560 | 34866 ft | 486 kts | 66° |
| 2026-04-16 23:16 | -3.24486 | 25.13765 | 34869 ft | 486 kts | 66° |
| 2026-04-16 23:16 | -3.21834 | 25.19938 | 34883 ft | 486 kts | 66° |
| 2026-04-16 23:17 | -3.19166 | 25.26147 | 34871 ft | 486 kts | 66° |
| 2026-04-16 23:17 | -3.16488 | 25.32377 | 34867 ft | 486 kts | 67° |
| 2026-04-16 23:18 | -3.13809 | 25.38607 | 34875 ft | 486 kts | 67° |
| 2026-04-16 23:18 | -3.11156 | 25.44779 | 34871 ft | 486 kts | 67° |
| 2026-04-16 23:19 | -3.08485 | 25.50990 | 34868 ft | 486 kts | 67° |
| 2026-04-16 23:19 | -3.05807 | 25.57216 | 34878 ft | 486 kts | 67° |
| 2026-04-16 23:20 | -3.03133 | 25.63430 | 34870 ft | 486 kts | 67° |
| 2026-04-16 23:20 | -3.00462 | 25.69638 | 34874 ft | 486 kts | 67° |
| 2026-04-16 23:21 | -2.97793 | 25.75840 | 34872 ft | 486 kts | 67° |
| 2026-04-16 23:21 | -2.95119 | 25.82055 | 34872 ft | 486 kts | 67° |
| 2026-04-16 23:22 | -2.92463 | 25.88225 | 34875 ft | 486 kts | 67° |
| 2026-04-16 23:22 | -2.89782 | 25.94422 | 34874 ft | 486 kts | 67° |
| 2026-04-16 23:23 | -2.87069 | 26.00628 | 34874 ft | 486 kts | 66° |
| 2026-04-16 23:23 | -2.84353 | 26.06824 | 34878 ft | 486 kts | 67° |
| 2026-04-16 23:24 | -2.81666 | 26.12969 | 34873 ft | 486 kts | 67° |
| 2026-04-16 23:24 | -2.78938 | 26.19216 | 34877 ft | 486 kts | 67° |
| 2026-04-16 23:25 | -2.76250 | 26.25373 | 34879 ft | 486 kts | 67° |
| 2026-04-16 23:25 | -2.73543 | 26.31571 | 34876 ft | 486 kts | 67° |
| 2026-04-16 23:26 | -2.70843 | 26.37751 | 34880 ft | 486 kts | 67° |
| 2026-04-16 23:26 | -2.68129 | 26.43962 | 34880 ft | 486 kts | 67° |
| 2026-04-16 23:27 | -2.65434 | 26.50128 | 34882 ft | 487 kts | 67° |
| 2026-04-16 23:27 | -2.62710 | 26.56360 | 34878 ft | 487 kts | 67° |
| 2026-04-16 23:28 | -2.59990 | 26.62582 | 34882 ft | 487 kts | 67° |
| 2026-04-16 23:28 | -2.57297 | 26.68741 | 34878 ft | 488 kts | 67° |
| 2026-04-16 23:29 | -2.54572 | 26.74970 | 34877 ft | 488 kts | 67° |
| 2026-04-16 23:29 | -2.51853 | 26.81188 | 34879 ft | 488 kts | 67° |
| 2026-04-16 23:30 | -2.49130 | 26.87411 | 34887 ft | 488 kts | 67° |
| 2026-04-16 23:30 | -2.46431 | 26.93582 | 34884 ft | 487 kts | 67° |
| 2026-04-16 23:31 | -2.43698 | 26.99828 | 34888 ft | 486 kts | 67° |
| 2026-04-16 23:31 | -2.41009 | 27.05971 | 34887 ft | 486 kts | 67° |
| 2026-04-16 23:32 | -2.38284 | 27.12196 | 34887 ft | 485 kts | 67° |
| 2026-04-16 23:32 | -2.35604 | 27.18318 | 34890 ft | 484 kts | 67° |
| 2026-04-16 23:33 | -2.32905 | 27.24483 | 34892 ft | 484 kts | 66° |
| 2026-04-16 23:33 | -2.30202 | 27.30656 | 34900 ft | 483 kts | 66° |
| 2026-04-16 23:34 | -2.27505 | 27.36813 | 34900 ft | 483 kts | 66° |
| 2026-04-16 23:34 | -2.24812 | 27.42961 | 34908 ft | 483 kts | 66° |
| 2026-04-16 23:35 | -2.22124 | 27.49096 | 34907 ft | 484 kts | 66° |
| 2026-04-16 23:35 | -2.19424 | 27.55260 | 34913 ft | 485 kts | 66° |
| 2026-04-16 23:36 | -2.16712 | 27.61449 | 34915 ft | 485 kts | 66° |
| 2026-04-16 23:36 | -2.14006 | 27.67623 | 34917 ft | 486 kts | 66° |
| 2026-04-16 23:37 | -2.11291 | 27.73817 | 34926 ft | 486 kts | 66° |
| 2026-04-16 23:37 | -2.08570 | 27.80023 | 34922 ft | 487 kts | 66° |
| 2026-04-16 23:38 | -2.05863 | 27.86197 | 34927 ft | 487 kts | 66° |
| 2026-04-16 23:38 | -2.03127 | 27.92438 | 34928 ft | 487 kts | 66° |
| 2026-04-16 23:39 | -2.00420 | 27.98611 | 34931 ft | 487 kts | 66° |
| 2026-04-16 23:39 | -1.97697 | 28.04823 | 34934 ft | 488 kts | 66° |
| 2026-04-16 23:40 | -1.94971 | 28.11036 | 34940 ft | 488 kts | 66° |
| 2026-04-16 23:40 | -1.92236 | 28.17271 | 34947 ft | 489 kts | 66° |
| 2026-04-16 23:41 | -1.89510 | 28.23484 | 34954 ft | 490 kts | 66° |
| 2026-04-16 23:41 | -1.86766 | 28.29738 | 34955 ft | 490 kts | 66° |
| 2026-04-16 23:42 | -1.84046 | 28.35936 | 34966 ft | 490 kts | 66° |
| 2026-04-16 23:42 | -1.81306 | 28.42180 | 34976 ft | 490 kts | 66° |
| 2026-04-16 23:43 | -1.78560 | 28.48434 | 34985 ft | 490 kts | 66° |
| 2026-04-16 23:43 | -1.75826 | 28.54662 | 35000 ft | 490 kts | 66° |
| 2026-04-16 23:44 | -1.73101 | 28.60870 | 35003 ft | 489 kts | 66° |
| 2026-04-16 23:44 | -1.70370 | 28.67093 | 35013 ft | 488 kts | 66° |
| 2026-04-16 23:45 | -1.67635 | 28.73320 | 35021 ft | 487 kts | 66° |
| 2026-04-16 23:45 | -1.64913 | 28.79519 | 35028 ft | 486 kts | 66° |
| 2026-04-16 23:46 | -1.62193 | 28.85712 | 35039 ft | 486 kts | 66° |
| 2026-04-16 23:46 | -1.59480 | 28.91890 | 35041 ft | 485 kts | 66° |
| 2026-04-16 23:47 | -1.56768 | 28.98066 | 35049 ft | 485 kts | 66° |
| 2026-04-16 23:47 | -1.54361 | 29.04209 | 35041 ft | 473 kts | 74° |
| 2026-04-16 23:48 | -1.52770 | 29.10639 | 35070 ft | 481 kts | 76° |
| 2026-04-16 23:48 | -1.51015 | 29.17160 | 35069 ft | 488 kts | 73° |
| 2026-04-16 23:49 | -1.49014 | 29.23615 | 35062 ft | 482 kts | 71° |
| 2026-04-16 23:49 | -1.46505 | 29.29716 | 35066 ft | 470 kts | 64° |
| 2026-04-16 23:50 | -1.43596 | 29.35554 | 35079 ft | 473 kts | 63° |
| 2026-04-16 23:50 | -1.40713 | 29.41543 | 35089 ft | 482 kts | 65° |
| 2026-04-16 23:51 | -1.37898 | 29.47688 | 35087 ft | 485 kts | 65° |
| 2026-04-16 23:51 | -1.35110 | 29.53788 | 35086 ft | 485 kts | 65° |
| 2026-04-16 23:52 | -1.32335 | 29.59888 | 35082 ft | 484 kts | 67° |
| 2026-04-16 23:52 | -1.29955 | 29.66168 | 35083 ft | 483 kts | 71° |
| 2026-04-16 23:53 | -1.27996 | 29.72578 | 35085 ft | 479 kts | 74° |
| 2026-04-16 23:53 | -1.26277 | 29.79021 | 35090 ft | 479 kts | 75° |
| 2026-04-16 23:54 | -1.24457 | 29.85433 | 35091 ft | 480 kts | 73° |
| 2026-04-16 23:54 | -1.22491 | 29.91795 | 35090 ft | 482 kts | 72° |
| 2026-04-16 23:55 | -1.20461 | 29.98185 | 35087 ft | 483 kts | 72° |
| 2026-04-16 23:55 | -1.18433 | 30.04609 | 35088 ft | 484 kts | 72° |
| 2026-04-16 23:56 | -1.16425 | 30.11027 | 35080 ft | 484 kts | 72° |
| 2026-04-16 23:56 | -1.14421 | 30.17447 | 35078 ft | 484 kts | 72° |
| 2026-04-16 23:57 | -1.12418 | 30.23857 | 35078 ft | 483 kts | 72° |
| 2026-04-16 23:57 | -1.10410 | 30.30274 | 35075 ft | 483 kts | 72° |
| 2026-04-16 23:58 | -1.08401 | 30.36653 | 35070 ft | 482 kts | 71° |
| 2026-04-16 23:58 | -1.05989 | 30.42851 | 35061 ft | 471 kts | 65° |
| 2026-04-16 23:59 | -1.02966 | 30.48554 | 35055 ft | 465 kts | 58° |
| 2026-04-16 23:59 | -0.99508 | 30.54033 | 35067 ft | 470 kts | 58° |
| 2026-04-17 00:00 | -0.96089 | 30.59688 | 35070 ft | 480 kts | 60° |
| 2026-04-17 00:00 | -0.93355 | 30.64542 | 35058 ft | 483 kts | 61° |
| 2026-04-17 00:01 | -0.90152 | 30.70429 | 35043 ft | 482 kts | 61° |
| 2026-04-17 00:01 | -0.86968 | 30.76295 | 35038 ft | 480 kts | 61° |
| 2026-04-17 00:02 | -0.83755 | 30.82158 | 35035 ft | 479 kts | 61° |
| 2026-04-17 00:02 | -0.80537 | 30.87997 | 35031 ft | 479 kts | 61° |
| 2026-04-17 00:03 | -0.77325 | 30.93819 | 35030 ft | 478 kts | 61° |
| 2026-04-17 00:03 | -0.74112 | 30.99648 | 35027 ft | 478 kts | 61° |
| 2026-04-17 00:04 | -0.70911 | 31.05461 | 35015 ft | 478 kts | 61° |
| 2026-04-17 00:04 | -0.67723 | 31.11249 | 35014 ft | 478 kts | 61° |
| 2026-04-17 00:05 | -0.64514 | 31.17076 | 35013 ft | 479 kts | 61° |
| 2026-04-17 00:05 | -0.61309 | 31.22895 | 35002 ft | 479 kts | 61° |
| 2026-04-17 00:06 | -0.58086 | 31.28745 | 35002 ft | 480 kts | 61° |
| 2026-04-17 00:06 | -0.54862 | 31.34597 | 34989 ft | 480 kts | 61° |
| 2026-04-17 00:07 | -0.51631 | 31.40462 | 34988 ft | 481 kts | 61° |
| 2026-04-17 00:07 | -0.48410 | 31.46309 | 34984 ft | 481 kts | 61° |
| 2026-04-17 00:08 | -0.45180 | 31.52173 | 34976 ft | 481 kts | 61° |
| 2026-04-17 00:08 | -0.41974 | 31.57993 | 34970 ft | 481 kts | 61° |
| 2026-04-17 00:09 | -0.38743 | 31.63857 | 34961 ft | 481 kts | 61° |
| 2026-04-17 00:09 | -0.35495 | 31.69751 | 34956 ft | 481 kts | 61° |
| 2026-04-17 00:10 | -0.32280 | 31.75586 | 34952 ft | 481 kts | 61° |
| 2026-04-17 00:10 | -0.29046 | 31.81456 | 34939 ft | 481 kts | 61° |
| 2026-04-17 00:11 | -0.25821 | 31.87310 | 34930 ft | 482 kts | 61° |
| 2026-04-17 00:11 | -0.22588 | 31.93178 | 34925 ft | 482 kts | 61° |
| 2026-04-17 00:12 | -0.19354 | 31.99048 | 34917 ft | 482 kts | 61° |
| 2026-04-17 00:12 | -0.16118 | 32.04922 | 34914 ft | 482 kts | 61° |
| 2026-04-17 00:13 | -0.12885 | 32.10788 | 34914 ft | 482 kts | 61° |
| 2026-04-17 00:13 | -0.09672 | 32.16621 | 34940 ft | 482 kts | 61° |
| 2026-04-17 00:14 | -0.06435 | 32.22497 | 34972 ft | 482 kts | 61° |
| 2026-04-17 00:14 | -0.03206 | 32.28358 | 35007 ft | 481 kts | 61° |
| 2026-04-17 00:15 | 0.00016 | 32.34206 | 35040 ft | 480 kts | 61° |
| 2026-04-17 00:15 | 0.03233 | 32.40045 | 35047 ft | 479 kts | 61° |
| 2026-04-17 00:16 | 0.06718 | 32.45588 | 35037 ft | 465 kts | 52° |
| 2026-04-17 00:16 | 0.11344 | 32.50043 | 35048 ft | 468 kts | 39° |
| 2026-04-17 00:17 | 0.16346 | 32.54154 | 35002 ft | 462 kts | 44° |
| 2026-04-17 00:17 | 0.20679 | 32.58864 | 34988 ft | 462 kts | 50° |
| 2026-04-17 00:18 | 0.24963 | 32.63812 | 34970 ft | 473 kts | 48° |
| 2026-04-17 00:18 | 0.29470 | 32.68628 | 34936 ft | 482 kts | 46° |
| 2026-04-17 00:19 | 0.34176 | 32.73399 | 34927 ft | 482 kts | 45° |
| 2026-04-17 00:19 | 0.38910 | 32.78164 | 34924 ft | 482 kts | 46° |
| 2026-04-17 00:20 | 0.43601 | 32.82932 | 34926 ft | 481 kts | 46° |
| 2026-04-17 00:20 | 0.48255 | 32.87696 | 34926 ft | 481 kts | 46° |
| 2026-04-17 00:21 | 0.52917 | 32.92472 | 34926 ft | 480 kts | 46° |
| 2026-04-17 00:21 | 0.57597 | 32.97261 | 34928 ft | 481 kts | 46° |
| 2026-04-17 00:22 | 0.64611 | 33.04432 | 34929 ft | 482 kts | 46° |
| 2026-04-17 00:22 | 0.69303 | 33.09230 | 34926 ft | 483 kts | 46° |
| 2026-04-17 00:23 | 0.73999 | 33.14032 | 34929 ft | 484 kts | 46° |
| 2026-04-17 00:23 | 0.78715 | 33.18857 | 34927 ft | 485 kts | 46° |
| 2026-04-17 00:24 | 0.83432 | 33.23679 | 34928 ft | 485 kts | 46° |
| 2026-04-17 00:24 | 0.88148 | 33.28491 | 34923 ft | 486 kts | 46° |
| 2026-04-17 00:25 | 0.89726 | 33.30102 | 34927 ft | 486 kts | 46° |